Miniplon — FIDV — position and weather

sailwx.info

Track history (hours):
 
Tides and Currents Weather Stations Pressure Air Temp Water Temp Dewpoint Dewpoint Depression Visibility Wind Speed Wind Dir Waves Ship Positions

Miniplon

Last reported at 2014-Oct-16 06:32 UTC. Time now 2014-Oct-21 12:05 UTC.
Position N 46°30' W 001°47'.

Length 22 m.

Type: SAR. MMSI: 228024600.

Date/timePositionNaut miles runAvg speedWind from/ knotsBaromVisibWave heightAir tempDewpointWater temp
2014-Oct-16 06:32N 46°30' W 001°47'0 0.0
2014-Oct-15 03:32N 46°30' W 001°47'0 0.0
2014-Oct-15 02:32N 46°30' W 001°47'0 0.0
2014-Oct-15 01:32N 46°30' W 001°47'0 0.0
2014-Oct-15 00:32N 46°30' W 001°47'0 0.0
2014-Oct-14 23:32N 46°30' W 001°47'0 0.0
2014-Oct-14 22:32N 46°30' W 001°47'4 3.8
2014-Oct-14 21:33N 46°30' W 001°53'93 7.7
2014-Oct-14 09:33N 47°40' W 003°21'1 0.8
2014-Oct-14 08:33N 47°40' W 003°22'3 0.9
2014-Oct-14 05:11N 47°39' W 003°27'82 9.5
2014-Oct-13 20:33N 46°39' W 002°04'9 9.4
2014-Oct-13 19:34N 46°32' W 001°55'  
Track history (hours):
 
Tides and Currents Weather Stations Pressure Air Temp Water Temp Dewpoint Dewpoint Depression Visibility Wind Speed Wind Dir Waves Ship Positions

Miniplon

Last reported at 2014-Oct-16 06:32 UTC. Time now 2014-Oct-21 12:05 UTC.
Position N 46°30' W 001°47'.

Length 22 m.

Type: SAR. MMSI: 228024600.

Date/timePositionNaut miles runAvg speedWind from/ knotsBaromVisibWave heightAir tempDewpointWater temp
2014-Oct-16 06:32N 46°30' W 001°47'0 0.0
2014-Oct-15 03:32N 46°30' W 001°47'0 0.0
2014-Oct-15 02:32N 46°30' W 001°47'0 0.0
2014-Oct-15 01:32N 46°30' W 001°47'0 0.0
2014-Oct-15 00:32N 46°30' W 001°47'0 0.0
2014-Oct-14 23:32N 46°30' W 001°47'0 0.0
2014-Oct-14 22:32N 46°30' W 001°47'4 3.8
2014-Oct-14 21:33N 46°30' W 001°53'93 7.7
2014-Oct-14 09:33N 47°40' W 003°21'1 0.8
2014-Oct-14 08:33N 47°40' W 003°22'3 0.9
2014-Oct-14 05:11N 47°39' W 003°27'82 9.5
2014-Oct-13 20:33N 46°39' W 002°04'9 9.4
2014-Oct-13 19:34N 46°32' W 001°55'  

Dump ship's entire track history